Aviation Digital Data Service (ADDS)

Output produced by METARs form (1323 UTC 22 April 2021)
found at http://www.aviationweather.gov/metar/data/
 
LZSL 221205Z 28020KT 8000 FEW045TCU BKN050 12/04 Q1015
LZSL 221125Z 26006KT 9999 BKN060 15/03 Q1015 RERA
LZSL 220930Z 02005KT 9999 SCT036 BKN100 15/09 Q1015
LZSL 220730Z VRB02KT 9999 FEW024 BKN090 10/08 Q1016
LZSL 220631Z VRB02KT 5000 BR FEW003 BKN080 07/07 Q1016
LZSL 220512Z 23002KT 4000 BR FEW001 BKN080 06/05 Q1015
LZSL 211616Z 20006KT 9999 BKN050 14/05 Q1013
LZSL 211423Z 21003KT 9999 FEW030 SCT080 15/01 Q1013
LZSL 210704Z VRB01KT 9999 SCT005 BKN130 06/05 Q1015
LZSL 210623Z VRB02KT 0800 R36/0800U BKN001 03/03 Q1015
LZSL 210408Z 12001KT 0800 R36/0800N FG SCT003 M00/M01 Q1014
LZSL 201209Z 12010KT 9999 BKN050 14/04 Q1012
LZSL 201135Z 21006KT 9999 BKN040 15/05 Q1012
LZSL 201027Z VRB02KT 9999 FEW040TCU BKN040 14/07 Q1012
LZSL 192026Z VRB02KT 3000 -RA BR BKN003 OVC037 07/07 Q1014
TAF LZSL 221030Z 2212/2221 VRB04KT 9999 SCT045 BKN090 
     TEMPO 2212/2214 35010KT -SHRA FEW045TCU BKN045 
     BECMG 2215/2217 33005KT CAVOK